VEGT/GAU METAR and TAF weather

Enter ICAO airport designator
Station Type Date Time Source
VEGT METAR 2019/08/21 21:30 UTC NOAA

VEGT 212130Z 00000KT 3000 BR SCT018 BKN100 28/26 Q1002 NOSIG


Station Type Date Time Source
VEGT Decoded METAR 2019/08/21 21:30 UTC NOAA

Station name not available
Aug 21, 2019 - 05:30 PM EDT / 2019.08.21 2130 UTC
Wind: Calm:0
Visibility: 1 mile(s):0
Sky conditions: mostly cloudy
Weather: mist
Temperature: 82 F (28 C)
Dew Point: 78 F (26 C)
Relative Humidity: 88%
Pressure (altimeter): 29.59 in. Hg (1002 hPa)
ob: VEGT 212130Z 00000KT 3000 BR SCT018 BKN100 28/26 Q1002 NOSIG
cycle: 21

Station Type Date Time Source
VEGT TAF 2016/03/24 00:45 UTC NOAA

TAF VEGT 242300Z 2500/2606 00000KT 2000 BR FEW020
BECMG 2503/2506 05008KT 4000 HZ
BECMG 2506/2509 5000 HZ
BECMG 2512/2514 00000KT 4000 HZ FEW020 SCT100
BECMG 2515/2518 2500 HZ
BECMG 2603/2606 05008KT 4000 HZ FEW020=

Example: see airport list